Las Palmas De Gran Canaria/Gando, Spain
Current Conditions -  °F | °C
As of 2:00 PM on Friday 24 Oct 2014 (Local Time) from GCLP Reporting Station
Clear Clear  
Wind Chill: 82°   Ceiling: Unl
Heat Index: 87°   Visibility: 6mi
Dew Point: 72°   Wind: 14mph
Humidity: 70%   Direction: 30°NNE
Pressure: 30"   Gusts: NA
Location:  27.96°N, 15.59°W
Report Text: GCLP 241300Z 03012KT CAVOK 28/22 Q1016 NOSIG
Loading
Personal Weather Stations






























Interactive Weather Map
Tropical Storm Tracking
New forecast layout! Learn more

10-Day Weather Forecast

Advertisements
Track Severe Weather on mobile